createdAt,value
2022-11-07T00:01:12.918Z,1.47
2022-11-07T00:03:39.550Z,1.70
2022-11-07T00:06:06.302Z,1.43
2022-11-07T00:08:33.130Z,1.80
2022-11-07T00:11:00.835Z,1.20
2022-11-07T00:13:27.708Z,1.70
2022-11-07T00:15:57.841Z,1.37
2022-11-07T00:18:24.382Z,1.60
2022-11-07T00:20:51.032Z,1.23
2022-11-07T00:23:17.672Z,1.73
2022-11-07T00:25:44.293Z,1.13
2022-11-07T00:28:10.855Z,1.50
2022-11-07T00:30:37.403Z,1.50
2022-11-07T00:33:04.393Z,1.27
2022-11-07T00:35:30.930Z,1.23
2022-11-07T00:37:58.094Z,1.40
2022-11-07T00:40:24.611Z,1.73
2022-11-07T00:42:51.257Z,1.00
2022-11-07T00:45:17.791Z,1.40
2022-11-07T00:47:44.337Z,1.50
2022-11-07T00:50:10.923Z,1.50
2022-11-07T00:52:37.425Z,1.40
2022-11-07T00:55:04.379Z,1.50
2022-11-07T00:57:30.910Z,1.37
2022-11-07T00:59:57.430Z,1.43
2022-11-07T01:02:24.113Z,1.50
2022-11-07T01:05:09.325Z,1.40
2022-11-07T01:07:36.493Z,1.07
2022-11-07T01:10:05.011Z,1.10
2022-11-07T01:12:33.961Z,1.30
2022-11-07T01:15:02.422Z,1.57
2022-11-07T01:17:29.002Z,1.33
2022-11-07T01:19:55.512Z,1.40
2022-11-07T01:22:22.045Z,1.23
2022-11-07T01:24:48.631Z,1.50
2022-11-07T01:27:15.141Z,1.30
2022-11-07T01:29:41.674Z,1.30
2022-11-07T01:32:08.211Z,1.50
2022-11-07T01:34:34.741Z,1.47
2022-11-07T01:37:01.279Z,1.00
2022-11-07T01:39:27.796Z,1.23
2022-11-07T01:41:54.298Z,1.00
2022-11-07T01:44:20.772Z,1.30
2022-11-07T01:46:49.039Z,1.30
2022-11-07T01:49:31.054Z,1.63
2022-11-07T01:52:14.805Z,1.30
2022-11-07T01:54:58.801Z,1.47
2022-11-07T01:57:42.530Z,1.60
2022-11-07T02:00:13.521Z,1.40
2022-11-07T02:02:41.403Z,1.63
2022-11-07T02:05:09.587Z,1.50
2022-11-07T02:07:38.006Z,1.20
2022-11-07T02:10:04.953Z,1.20
2022-11-07T02:12:31.564Z,1.33
2022-11-07T02:14:58.105Z,1.10
2022-11-07T02:17:24.926Z,1.20
2022-11-07T02:19:53.998Z,1.17
2022-11-07T02:22:23.566Z,0.97
2022-11-07T02:24:53.869Z,1.20
2022-11-07T02:27:23.586Z,1.20
2022-11-07T02:29:54.456Z,1.10
2022-11-07T02:32:21.034Z,1.60
2022-11-07T02:34:59.196Z,1.03
2022-11-07T02:37:29.918Z,1.33
2022-11-07T02:39:57.478Z,1.53
2022-11-07T02:42:24.517Z,0.90
2022-11-07T02:44:54.949Z,1.20
2022-11-07T02:47:21.445Z,1.30
2022-11-07T02:49:47.961Z,1.30
2022-11-07T02:52:14.496Z,1.53
2022-11-07T02:54:40.986Z,1.00
2022-11-07T02:57:07.520Z,1.30
2022-11-07T02:59:34.025Z,1.00
2022-11-07T03:02:00.610Z,1.50
2022-11-07T03:04:27.239Z,1.17
2022-11-07T03:06:53.753Z,1.10
2022-11-07T03:09:20.269Z,1.27
2022-11-07T03:11:46.792Z,1.40
2022-11-07T03:14:13.306Z,1.20
2022-11-07T03:16:39.834Z,0.97
2022-11-07T03:19:06.374Z,1.10
2022-11-07T03:21:32.889Z,1.10
2022-11-07T03:23:59.410Z,1.70
2022-11-07T03:26:25.993Z,1.20
2022-11-07T03:28:52.497Z,1.20
2022-11-07T03:31:18.996Z,1.13
2022-11-07T03:33:45.540Z,1.30
2022-11-07T03:36:12.374Z,1.20
2022-11-07T03:38:38.891Z,1.30
2022-11-07T03:41:05.489Z,1.10
2022-11-07T03:43:31.999Z,0.87
2022-11-07T03:45:58.535Z,1.20
2022-11-07T03:48:25.158Z,1.20
2022-11-07T03:50:51.691Z,1.20
2022-11-07T03:53:23.798Z,1.00
2022-11-07T03:55:54.627Z,1.07
2022-11-07T03:58:21.339Z,1.00
2022-11-07T04:00:47.863Z,0.90
2022-11-07T04:03:14.695Z,1.27
2022-11-07T04:05:41.537Z,1.17
2022-11-07T04:08:08.348Z,1.33
2022-11-07T04:10:34.931Z,0.97
2022-11-07T04:13:19.985Z,1.10
2022-11-07T04:16:05.377Z,1.33
2022-11-07T04:18:31.890Z,1.17
2022-11-07T04:20:58.403Z,1.00
2022-11-07T04:23:25.034Z,1.03
2022-11-07T04:26:10.117Z,1.30
2022-11-07T04:28:36.649Z,0.90
2022-11-07T04:31:03.207Z,1.10
2022-11-07T04:33:29.745Z,1.30
2022-11-07T04:35:56.268Z,1.10
2022-11-07T04:38:22.823Z,1.10
2022-11-07T04:40:54.288Z,0.90
2022-11-07T04:43:21.085Z,1.20
2022-11-07T04:45:47.610Z,1.00
2022-11-07T04:48:14.109Z,1.20
2022-11-07T04:50:41.649Z,1.00
2022-11-07T04:53:11.359Z,0.83
2022-11-07T04:55:37.992Z,1.07
2022-11-07T04:58:04.529Z,0.90
2022-11-07T05:00:31.144Z,1.17
2022-11-07T05:02:57.693Z,1.07
2022-11-07T05:05:24.292Z,1.20
2022-11-07T05:07:50.902Z,0.90
2022-11-07T05:10:24.448Z,1.00
2022-11-07T05:12:51.282Z,1.40
2022-11-07T05:15:17.978Z,1.03
2022-11-07T05:17:44.687Z,1.30
2022-11-07T05:20:28.613Z,1.00
2022-11-07T05:23:14.595Z,0.90
2022-11-07T05:25:54.075Z,1.20
2022-11-07T05:28:31.195Z,1.30
2022-11-07T05:31:03.113Z,1.30
2022-11-07T05:33:29.890Z,1.17
2022-11-07T05:35:56.622Z,1.17
2022-11-07T05:38:23.116Z,1.13
2022-11-07T05:40:49.637Z,1.10
2022-11-07T05:43:16.649Z,1.23
2022-11-07T05:45:43.520Z,0.90
2022-11-07T05:48:12.826Z,1.20
2022-11-07T05:50:40.390Z,1.03
2022-11-07T05:53:06.952Z,1.00
2022-11-07T05:55:34.251Z,1.50
2022-11-07T05:58:06.656Z,1.17
2022-11-07T06:00:33.856Z,1.20
2022-11-07T06:03:00.859Z,1.23
2022-11-07T06:05:28.230Z,1.33
2022-11-07T06:07:55.419Z,1.20
2022-11-07T06:10:22.656Z,0.97
2022-11-07T06:12:58.517Z,1.10
2022-11-07T06:15:25.142Z,0.93
2022-11-07T06:17:51.694Z,1.30
2022-11-07T06:20:18.196Z,1.20
2022-11-07T06:22:44.798Z,0.90
2022-11-07T06:25:11.354Z,1.10
2022-11-07T06:27:38.203Z,1.00
2022-11-07T06:30:05.500Z,1.10
2022-11-07T06:32:32.943Z,1.03
2022-11-07T06:34:59.495Z,0.97
2022-11-07T06:37:27.138Z,0.90
2022-11-07T06:39:53.689Z,1.07
2022-11-07T06:42:20.232Z,1.20
2022-11-07T06:44:46.800Z,1.17
2022-11-07T06:47:13.299Z,1.20
2022-11-07T06:49:39.839Z,1.23
2022-11-07T06:52:06.341Z,1.10
2022-11-07T06:54:32.890Z,1.03
2022-11-07T06:56:59.411Z,1.37
2022-11-07T06:59:25.909Z,1.17
2022-11-07T07:01:52.484Z,0.90
2022-11-07T07:04:19.050Z,1.27
2022-11-07T07:06:45.846Z,1.40
2022-11-07T07:09:12.452Z,1.17
2022-11-07T07:11:39.130Z,1.40
2022-11-07T07:14:11.286Z,1.13
2022-11-07T07:16:38.270Z,1.10
2022-11-07T07:19:05.106Z,1.20
2022-11-07T07:21:32.984Z,1.00
2022-11-07T07:23:59.508Z,1.30
2022-11-07T07:26:26.052Z,1.30
2022-11-07T07:28:52.589Z,0.97
2022-11-07T07:31:23.040Z,1.00
2022-11-07T07:33:49.668Z,1.07
2022-11-07T07:36:20.680Z,0.90
2022-11-07T07:38:48.243Z,1.70
2022-11-07T07:41:14.794Z,1.17
2022-11-07T07:43:41.365Z,1.03
2022-11-07T07:46:08.941Z,0.90
2022-11-07T07:48:35.528Z,0.90
2022-11-07T07:51:02.142Z,0.90
2022-11-07T07:53:28.694Z,1.20
2022-11-07T07:55:59.497Z,1.10
2022-11-07T07:58:26.996Z,0.90
2022-11-07T08:00:58.323Z,1.87
2022-11-07T08:03:29.360Z,0.93
2022-11-07T08:06:02.589Z,0.80
2022-11-07T08:08:31.519Z,0.80
2022-11-07T08:11:04.596Z,0.90
2022-11-07T08:13:31.198Z,1.30
2022-11-07T08:15:57.898Z,0.87
2022-11-07T08:18:24.916Z,1.20
2022-11-07T08:20:53.909Z,1.10
2022-11-07T08:23:20.989Z,1.30
2022-11-07T08:25:55.843Z,1.07
2022-11-07T08:28:24.600Z,1.13
2022-11-07T08:31:02.995Z,1.23
2022-11-07T08:33:29.836Z,1.20
2022-11-07T08:36:00.555Z,1.33
2022-11-07T08:38:28.757Z,0.90
2022-11-07T08:40:55.934Z,1.20
2022-11-07T08:43:22.895Z,1.17
2022-11-07T08:45:50.953Z,0.90
2022-11-07T08:48:17.575Z,1.10
2022-11-07T08:50:44.497Z,1.07
2022-11-07T08:53:11.157Z,1.10
2022-11-07T08:55:37.845Z,0.87
2022-11-07T08:58:06.514Z,0.90
2022-11-07T09:00:34.618Z,0.80
2022-11-07T09:03:31.202Z,1.10
2022-11-07T09:05:52.434Z,0.83
2022-11-07T09:08:19.261Z,1.10
2022-11-07T09:10:45.830Z,1.10
2022-11-07T09:13:14.636Z,0.80
2022-11-07T09:15:46.182Z,0.90
2022-11-07T09:18:16.080Z,0.97
2022-11-07T09:20:42.642Z,0.70
2022-11-07T09:23:09.506Z,1.00
2022-11-07T09:25:36.037Z,0.90
2022-11-07T09:28:03.443Z,0.97
2022-11-07T09:30:29.993Z,0.90
2022-11-07T09:32:56.930Z,0.87
2022-11-07T09:35:23.626Z,0.93
2022-11-07T09:37:51.077Z,0.80
2022-11-07T09:40:46.142Z,0.77
2022-11-07T09:43:42.721Z,0.70
2022-11-07T09:46:22.694Z,1.30
2022-11-07T09:48:55.438Z,0.93
2022-11-07T09:51:39.128Z,0.90
2022-11-07T09:54:17.022Z,1.13
2022-11-07T09:56:44.406Z,0.80
2022-11-07T09:59:20.538Z,0.83
2022-11-07T10:01:47.242Z,0.90
2022-11-07T10:04:26.496Z,0.80
2022-11-07T10:06:56.596Z,0.87
2022-11-07T10:09:51.278Z,0.83
2022-11-07T10:12:45.731Z,0.87
2022-11-07T10:15:36.302Z,0.87
2022-11-07T10:18:28.549Z,1.17
2022-11-07T10:21:36.639Z,1.03
2022-11-07T10:24:31.313Z,0.70
2022-11-07T10:26:58.374Z,1.00
2022-11-07T10:29:30.417Z,0.90
2022-11-07T10:32:21.012Z,1.10
2022-11-07T10:34:55.043Z,0.97
2022-11-07T10:37:21.873Z,1.00
2022-11-07T10:39:48.379Z,0.67
2022-11-07T10:42:26.873Z,0.90
2022-11-07T10:44:55.538Z,0.97
2022-11-07T10:47:24.253Z,0.80
2022-11-07T10:49:59.655Z,0.90
2022-11-07T10:52:27.799Z,1.07
2022-11-07T10:55:16.278Z,0.90
2022-11-07T10:57:45.312Z,0.90
2022-11-07T11:00:44.442Z,1.10
2022-11-07T11:03:29.056Z,1.20
2022-11-07T11:06:21.464Z,1.07
2022-11-07T11:08:50.153Z,1.23
2022-11-07T11:11:23.520Z,0.97
2022-11-07T11:14:14.086Z,0.90
2022-11-07T11:16:42.647Z,1.00
2022-11-07T11:19:35.735Z,0.80
2022-11-07T11:22:07.228Z,1.20
2022-11-07T11:24:39.775Z,1.03
2022-11-07T11:27:14.237Z,0.80
2022-11-07T11:29:58.808Z,0.93
2022-11-07T11:32:35.290Z,1.07
2022-11-07T11:35:11.410Z,0.77
2022-11-07T11:37:42.624Z,1.10
2022-11-07T11:40:17.515Z,0.73
2022-11-07T11:42:59.630Z,0.80
2022-11-07T11:45:34.594Z,0.90
2022-11-07T11:48:25.891Z,0.80
2022-11-07T11:50:55.460Z,1.00
2022-11-07T11:53:22.922Z,1.10
2022-11-07T11:56:07.905Z,0.90
2022-11-07T11:58:52.086Z,0.87
2022-11-07T12:01:48.740Z,0.97
2022-11-07T12:04:39.565Z,1.03
2022-11-07T12:07:30.863Z,0.90
2022-11-07T12:10:27.679Z,0.77
2022-11-07T12:13:20.086Z,1.00
2022-11-07T12:16:05.685Z,1.00
2022-11-07T12:18:41.304Z,0.93
2022-11-07T12:21:35.351Z,0.70
2022-11-07T12:24:40.040Z,0.73
2022-11-07T12:27:15.200Z,1.00
2022-11-07T12:30:05.389Z,0.70
2022-11-07T12:32:45.793Z,0.90
2022-11-07T12:35:35.153Z,1.00
2022-11-07T12:38:16.378Z,0.80
2022-11-07T12:40:49.860Z,1.23
2022-11-07T12:43:34.420Z,0.90
2022-11-07T12:46:35.957Z,0.80
2022-11-07T12:49:17.401Z,1.03
2022-11-07T12:52:11.498Z,0.80
2022-11-07T12:54:51.350Z,1.20
2022-11-07T12:57:22.314Z,0.97
2022-11-07T13:00:12.245Z,0.93
2022-11-07T13:02:58.872Z,0.90
2022-11-07T13:05:37.427Z,1.10
2022-11-07T13:08:34.884Z,1.00
2022-11-07T13:11:13.930Z,1.00
2022-11-07T13:14:04.837Z,0.73
2022-11-07T13:16:35.182Z,0.87
2022-11-07T13:19:20.567Z,0.87
2022-11-07T13:21:57.778Z,1.00
2022-11-07T13:24:24.287Z,0.80
2022-11-07T13:26:50.948Z,0.80
2022-11-07T13:29:35.803Z,0.70
2022-11-07T13:32:10.771Z,0.93
2022-11-07T13:34:55.098Z,1.03
2022-11-07T13:37:31.769Z,1.20
2022-11-07T13:40:21.305Z,1.10
2022-11-07T13:42:49.146Z,0.80
2022-11-07T13:45:33.574Z,0.80
2022-11-07T13:48:07.027Z,0.80
2022-11-07T13:50:43.368Z,0.97
2022-11-07T13:53:23.302Z,0.93
2022-11-07T13:56:22.038Z,0.70
2022-11-07T13:58:51.081Z,0.90
2022-11-07T14:01:17.769Z,1.00
2022-11-07T14:03:44.332Z,0.80
2022-11-07T14:06:15.848Z,0.83
2022-11-07T14:08:45.839Z,0.90
2022-11-07T14:11:19.167Z,0.90
2022-11-07T14:13:48.831Z,0.90
2022-11-07T14:16:27.038Z,0.53
2022-11-07T14:19:02.307Z,0.93
2022-11-07T14:21:34.297Z,0.57
2022-11-07T14:24:01.495Z,0.73
2022-11-07T14:26:32.820Z,1.00
2022-11-07T14:29:01.000Z,1.00
2022-11-07T14:31:32.678Z,1.10
2022-11-07T14:34:15.267Z,0.73
2022-11-07T14:36:49.374Z,0.90
2022-11-07T14:39:17.701Z,0.90
2022-11-07T14:41:45.334Z,0.70
2022-11-07T14:44:22.947Z,0.63
2022-11-07T14:46:52.920Z,0.87
2022-11-07T14:49:46.373Z,0.83
2022-11-07T14:52:21.256Z,0.63
2022-11-07T14:54:50.771Z,0.73
2022-11-07T14:57:18.018Z,0.83
2022-11-07T14:59:44.951Z,0.83
2022-11-07T15:02:26.584Z,0.90
2022-11-07T15:04:56.667Z,0.67
2022-11-07T15:07:30.578Z,0.50
2022-11-07T15:09:59.473Z,0.80
2022-11-07T15:12:36.094Z,0.80
2022-11-07T15:15:21.991Z,0.77
2022-11-07T15:17:51.544Z,1.03
2022-11-07T15:20:38.177Z,0.60
2022-11-07T15:23:06.827Z,0.90
2022-11-07T15:25:39.164Z,0.80
2022-11-07T15:28:18.924Z,0.90
2022-11-07T15:30:47.047Z,0.80
2022-11-07T15:33:16.981Z,1.00
2022-11-07T15:35:45.337Z,0.70
2022-11-07T15:38:19.468Z,0.63
2022-11-07T15:40:46.448Z,1.20
2022-11-07T15:43:13.191Z,0.70
2022-11-07T15:45:40.416Z,0.70
2022-11-07T15:48:08.415Z,0.67
2022-11-07T15:50:42.334Z,0.60
2022-11-07T15:53:23.867Z,0.70
2022-11-07T15:55:53.125Z,0.90
2022-11-07T15:58:22.735Z,0.87
2022-11-07T16:00:49.490Z,0.70
2022-11-07T16:03:17.855Z,0.70
2022-11-07T16:05:46.341Z,0.80
2022-11-07T16:08:19.284Z,0.60
2022-11-07T16:10:48.494Z,0.53
2022-11-07T16:13:15.440Z,0.50
2022-11-07T16:15:45.495Z,0.63
2022-11-07T16:18:16.602Z,1.93
2022-11-07T16:20:43.597Z,2.37
2022-11-07T16:23:10.875Z,4.80
2022-11-07T16:25:42.349Z,5.57
2022-11-07T16:28:26.568Z,5.27
2022-11-07T16:30:53.408Z,5.37
2022-11-07T16:33:20.374Z,4.60
2022-11-07T16:35:52.970Z,4.73
2022-11-07T16:38:20.886Z,4.63
2022-11-07T16:40:47.846Z,4.77
2022-11-07T16:43:14.422Z,4.20
2022-11-07T16:45:51.906Z,6.23
2022-11-07T16:48:27.554Z,8.23
2022-11-07T16:50:55.538Z,7.43
2022-11-07T16:53:23.265Z,8.50
2022-11-07T16:55:54.026Z,7.67
2022-11-07T16:58:27.801Z,8.00
2022-11-07T17:00:56.422Z,7.53
2022-11-07T17:03:24.090Z,6.53
2022-11-07T17:05:55.714Z,6.70
2022-11-07T17:08:28.441Z,5.53
2022-11-07T17:10:55.068Z,4.17
2022-11-07T17:13:22.959Z,3.77
2022-11-07T17:15:49.969Z,4.90
2022-11-07T17:18:23.453Z,4.40
2022-11-07T17:20:52.173Z,3.97
2022-11-07T17:23:28.552Z,3.80
2022-11-07T17:26:00.109Z,3.20
2022-11-07T17:28:26.705Z,4.00
2022-11-07T17:30:53.361Z,4.40
2022-11-07T17:33:19.921Z,3.63
2022-11-07T17:35:47.650Z,3.63
2022-11-07T17:38:19.290Z,3.27
2022-11-07T17:40:46.377Z,3.43
2022-11-07T17:43:12.896Z,2.83
2022-11-07T17:45:40.136Z,4.33
2022-11-07T17:48:06.804Z,3.30
2022-11-07T17:50:33.385Z,3.00
2022-11-07T17:53:00.225Z,3.73
2022-11-07T17:55:27.009Z,3.07
2022-11-07T17:57:53.993Z,2.90
2022-11-07T18:00:23.836Z,3.10
2022-11-07T18:02:52.180Z,3.00
2022-11-07T18:05:22.136Z,3.27
2022-11-07T18:07:48.695Z,2.93
2022-11-07T18:10:16.095Z,3.03
2022-11-07T18:12:43.540Z,2.63
2022-11-07T18:15:13.747Z,2.90
2022-11-07T18:17:41.533Z,2.90
2022-11-07T18:20:09.971Z,2.97
2022-11-07T18:22:37.110Z,2.60
2022-11-07T18:25:05.707Z,2.80
2022-11-07T18:27:32.486Z,2.60
2022-11-07T18:29:59.042Z,2.80
2022-11-07T18:32:25.773Z,2.83
2022-11-07T18:34:52.281Z,2.50
2022-11-07T18:37:18.809Z,2.60
2022-11-07T18:39:45.409Z,2.70
2022-11-07T18:42:11.955Z,2.90
2022-11-07T18:44:38.622Z,2.87
2022-11-07T18:47:05.178Z,2.73
2022-11-07T18:49:31.858Z,2.50
2022-11-07T18:51:58.386Z,2.53
2022-11-07T18:54:26.117Z,2.50
2022-11-07T18:56:52.712Z,4.00
2022-11-07T18:59:19.324Z,4.33
2022-11-07T19:01:46.020Z,4.97
2022-11-07T19:04:12.715Z,5.13
2022-11-07T19:06:55.519Z,4.77
2022-11-07T19:09:23.926Z,4.90
2022-11-07T19:11:50.502Z,4.27
2022-11-07T19:14:17.441Z,4.50
2022-11-07T19:16:44.062Z,3.50
2022-11-07T19:19:10.758Z,4.30
2022-11-07T19:21:39.139Z,3.90
2022-11-07T19:24:08.385Z,4.47
2022-11-07T19:26:35.524Z,3.97
2022-11-07T19:29:04.878Z,3.43
2022-11-07T19:31:34.803Z,4.20
2022-11-07T19:34:01.781Z,4.20
2022-11-07T19:36:28.397Z,3.73
2022-11-07T19:38:54.990Z,4.27
2022-11-07T19:41:21.532Z,3.73
2022-11-07T19:43:49.833Z,3.90
2022-11-07T19:46:20.065Z,4.17
2022-11-07T19:48:47.659Z,3.43
2022-11-07T19:51:21.270Z,3.70
2022-11-07T19:53:56.358Z,3.67
2022-11-07T19:56:24.094Z,3.67
2022-11-07T19:58:51.040Z,3.50
2022-11-07T20:01:24.112Z,3.87
2022-11-07T20:03:52.130Z,3.53
2022-11-07T20:06:21.637Z,3.30
2022-11-07T20:08:48.413Z,3.73
2022-11-07T20:11:19.792Z,3.53
2022-11-07T20:13:46.415Z,3.00
2022-11-07T20:16:13.513Z,3.40
2022-11-07T20:18:41.122Z,2.80
2022-11-07T20:21:13.035Z,3.17
2022-11-07T20:23:40.912Z,3.23
2022-11-07T20:26:10.578Z,3.67
2022-11-07T20:28:37.847Z,3.03
2022-11-07T20:31:12.579Z,3.73
2022-11-07T20:33:39.132Z,3.43
2022-11-07T20:36:09.011Z,3.20
2022-11-07T20:38:36.019Z,3.47
2022-11-07T20:41:05.052Z,2.90
2022-11-07T20:43:33.657Z,3.17
2022-11-07T20:46:05.743Z,2.90
2022-11-07T20:48:32.745Z,2.83
2022-11-07T20:51:06.089Z,2.83
2022-11-07T20:53:32.632Z,3.10
2022-11-07T20:56:02.729Z,2.73
2022-11-07T20:58:29.586Z,3.20
2022-11-07T21:00:56.162Z,3.40
2022-11-07T21:03:22.702Z,3.20
2022-11-07T21:05:52.694Z,2.70
2022-11-07T21:08:19.380Z,2.60
2022-11-07T21:10:48.637Z,2.47
2022-11-07T21:13:16.497Z,2.93
2022-11-07T21:15:43.686Z,2.77
2022-11-07T21:18:11.533Z,3.00
2022-11-07T21:20:39.235Z,3.00
2022-11-07T21:23:07.221Z,2.57
2022-11-07T21:25:34.617Z,3.00
2022-11-07T21:28:01.142Z,2.83
2022-11-07T21:30:27.783Z,2.70
2022-11-07T21:32:54.491Z,2.80
2022-11-07T21:35:22.771Z,3.33
2022-11-07T21:37:50.257Z,2.97
2022-11-07T21:40:16.808Z,2.60
2022-11-07T21:42:43.346Z,2.40
2022-11-07T21:45:10.533Z,2.73
2022-11-07T21:47:39.745Z,2.83
2022-11-07T21:50:30.833Z,2.40
2022-11-07T21:52:56.542Z,2.97
2022-11-07T21:55:23.335Z,2.77
2022-11-07T21:57:49.969Z,2.67
2022-11-07T22:00:17.069Z,2.77
2022-11-07T22:02:43.638Z,2.60
2022-11-07T22:05:10.268Z,2.37
2022-11-07T22:07:36.885Z,2.50
2022-11-07T22:10:04.926Z,2.60
2022-11-07T22:12:31.599Z,2.73
2022-11-07T22:14:58.154Z,3.00
2022-11-07T22:17:26.791Z,2.30
2022-11-07T22:19:53.788Z,3.03
2022-11-07T22:22:21.093Z,2.80
2022-11-07T22:24:47.733Z,2.50
2022-11-07T22:27:14.267Z,2.40
2022-11-07T22:29:40.770Z,3.03
2022-11-07T22:32:07.318Z,2.60
2022-11-07T22:34:33.921Z,2.70
2022-11-07T22:37:00.463Z,2.90
2022-11-07T22:39:27.000Z,2.60
2022-11-07T22:41:53.518Z,2.17
2022-11-07T22:44:20.096Z,2.80
2022-11-07T22:46:46.605Z,3.07
2022-11-07T22:49:13.158Z,2.40
2022-11-07T22:51:39.669Z,2.83
2022-11-07T22:54:08.406Z,2.60
2022-11-07T22:56:36.452Z,2.57
2022-11-07T22:59:04.910Z,3.30
2022-11-07T23:01:34.253Z,2.40
2022-11-07T23:04:01.240Z,2.60
2022-11-07T23:06:28.777Z,2.40
2022-11-07T23:08:59.426Z,2.80
2022-11-07T23:11:50.346Z,2.57
2022-11-07T23:14:19.686Z,2.80
2022-11-07T23:16:55.426Z,2.40
2022-11-07T23:19:24.874Z,2.53
2022-11-07T23:21:53.084Z,2.50
2022-11-07T23:24:20.457Z,2.60
2022-11-07T23:26:47.386Z,2.50
2022-11-07T23:29:17.775Z,2.27
2022-11-07T23:31:46.889Z,2.17
2022-11-07T23:34:14.361Z,3.20
2022-11-07T23:36:43.658Z,2.30
2022-11-07T23:39:15.151Z,2.40
2022-11-07T23:41:42.223Z,2.60
2022-11-07T23:44:10.090Z,2.37
2022-11-07T23:46:55.681Z,2.60
2022-11-07T23:49:40.961Z,2.00
2022-11-07T23:52:07.735Z,2.30
2022-11-07T23:54:53.031Z,2.60
2022-11-07T23:57:20.250Z,2.00
